Time;durP1;ratioP1;P1;durP2;ratioP2;P2;SDS_P1;SDS_P2;PMS_P1;PMS_P2;Temp;Humidity;BMP_temperature;BMP_pressure;BME280_temperature;BME280_humidity;BME280_pressure;Samples;Min_cycle;Max_cycle;Signal;HPM_P1;HPM_P2
2022/01/28 00:00:30;;;;;;;183.93;36.83;;;0.60;99.90;;;;;;5000022;28;20383;-81
2022/01/28 00:03:01;;;;;;;113.40;42.33;;;0.60;99.90;;;;;;5014887;28;20084;-82
2022/01/28 00:05:28;;;;;;;109.85;41.90;;;0.60;99.90;;;;;;4982202;28;20107;-82
2022/01/28 00:07:55;;;;;;;125.63;42.25;;;0.60;99.90;;;;;;4999937;28;20034;-82
2022/01/28 00:10:23;;;;;;;110.35;42.88;;;0.60;99.90;;;;;;4999884;28;20026;-82
2022/01/28 00:39:38;;;;;;;91.88;33.95;;;0.30;99.90;;;;;;4999420;28;20050;-82
2022/01/28 00:42:05;;;;;;;70.18;34.55;;;0.20;99.90;;;;;;4981508;28;20053;-81
2022/01/28 00:44:31;;;;;;;61.53;35.90;;;0.20;99.90;;;;;;4999462;28;20049;-81
2022/01/28 00:46:57;;;;;;;93.88;36.47;;;0.10;99.90;;;;;;4999174;28;20027;-82
2022/01/28 00:49:24;;;;;;;66.93;36.20;;;0.10;99.90;;;;;;4982395;28;20397;-81
2022/01/28 00:51:49;;;;;;;78.43;34.40;;;0.10;99.90;;;;;;4982187;28;20026;-82
2022/01/28 00:54:17;;;;;;;121.63;33.33;;;0.10;99.90;;;;;;4982564;28;20045;-81
2022/01/28 00:56:44;;;;;;;98.50;33.25;;;0.00;99.90;;;;;;5000028;28;20030;-81
2022/01/28 00:59:11;;;;;;;60.38;35.97;;;0.00;99.90;;;;;;4999093;28;20599;-82
2022/01/28 01:01:37;;;;;;;115.38;38.97;;;0.00;99.90;;;;;;4981743;28;20105;-82
2022/01/28 01:04:04;;;;;;;71.03;36.38;;;0.10;99.90;;;;;;4981468;28;20061;-81
2022/01/28 01:06:30;;;;;;;125.47;39.60;;;0.10;99.90;;;;;;5014339;28;20053;-82
2022/01/28 01:08:57;;;;;;;80.25;37.13;;;0.10;99.90;;;;;;4981542;28;20053;-81
2022/01/28 01:11:24;;;;;;;119.35;35.53;;;0.10;99.90;;;;;;4998736;28;20081;-81
2022/01/28 01:13:51;;;;;;;131.60;50.80;;;0.10;99.90;;;;;;4998568;28;20022;-82
2022/01/28 01:16:25;;;;;;;95.35;39.88;;;0.10;99.90;;;;;;4998669;28;20057;-81
2022/01/28 01:19:02;;;;;;;94.80;37.50;;;0.10;99.90;;;;;;4998463;28;20018;-81
2022/01/28 01:21:30;;;;;;;92.55;39.38;;;0.10;99.90;;;;;;5003992;28;20019;-82
2022/01/28 01:23:58;;;;;;;82.88;40.20;;;0.10;99.90;;;;;;4981212;28;20423;-82
2022/01/28 01:26:33;;;;;;;82.90;42.17;;;0.10;99.90;;;;;;4998448;28;20022;-81
2022/01/28 01:29:00;;;;;;;84.45;41.30;;;0.10;99.90;;;;;;4980533;28;20042;-82
2022/01/28 01:31:26;;;;;;;74.47;36.47;;;0.20;99.90;;;;;;4969622;28;20047;-82
2022/01/28 01:34:10;;;;;;;94.18;38.67;;;0.20;99.90;;;;;;4978637;28;20038;-82
2022/01/28 01:36:36;;;;;;;105.72;37.22;;;0.10;99.90;;;;;;4981777;28;20031;-82
2022/01/28 01:39:03;;;;;;;85.50;38.17;;;0.10;99.90;;;;;;4978870;28;20058;-82
2022/01/28 01:41:36;;;;;;;203.13;41.05;;;0.10;99.90;;;;;;4961448;28;20018;-82
2022/01/28 01:44:07;;;;;;;121.72;40.80;;;0.10;99.90;;;;;;4978976;28;20030;-82
2022/01/28 01:52:05;;;;;;;87.35;40.13;;;0.00;99.90;;;;;;4978883;28;20057;-82
2022/01/28 01:54:38;;;;;;;93.60;38.97;;;0.00;99.90;;;;;;4961068;28;20037;-82
2022/01/28 01:57:08;;;;;;;97.25;42.38;;;0.10;99.90;;;;;;4961528;28;20095;-82
2022/01/28 01:59:34;;;;;;;146.30;40.88;;;0.10;99.90;;;;;;4960643;28;20450;-82
2022/01/28 02:02:00;;;;;;;105.22;44.10;;;0.10;99.90;;;;;;4960871;28;20023;-81
2022/01/28 02:04:26;;;;;;;134.75;38.45;;;0.10;99.90;;;;;;4978110;28;20031;-82
2022/01/28 02:06:53;;;;;;;155.20;39.33;;;0.10;99.90;;;;;;4961218;28;20063;-82
2022/01/28 02:09:19;;;;;;;164.60;38.67;;;0.10;99.90;;;;;;4978581;28;20091;-82
2022/01/28 02:11:45;;;;;;;144.05;40.00;;;0.10;99.90;;;;;;4961386;28;20491;-82
2022/01/28 02:14:11;;;;;;;108.57;38.08;;;0.10;99.90;;;;;;4978872;28;20031;-82
2022/01/28 02:16:37;;;;;;;203.77;40.90;;;0.10;99.90;;;;;;4961170;28;20061;-82
2022/01/28 02:19:04;;;;;;;154.65;40.97;;;0.00;99.90;;;;;;4961581;28;20087;-83
2022/01/28 02:21:34;;;;;;;81.57;39.25;;;0.00;99.90;;;;;;4983440;28;20023;-81
2022/01/28 02:24:03;;;;;;;156.52;69.53;;;0.00;99.90;;;;;;4961097;28;20027;-82
2022/01/28 02:26:30;;;;;;;86.80;43.08;;;0.00;99.90;;;;;;4961011;28;20027;-82
2022/01/28 02:28:58;;;;;;;80.35;40.63;;;0.10;99.90;;;;;;4982403;28;20078;-82
2022/01/28 02:31:27;;;;;;;73.63;37.88;;;0.10;99.90;;;;;;4997735;28;20023;-82
2022/01/28 02:33:56;;;;;;;130.77;36.22;;;0.10;99.90;;;;;;4997495;28;20033;-83
2022/01/28 02:36:24;;;;;;;85.20;34.55;;;0.10;99.90;;;;;;4982776;28;20073;-82
2022/01/28 02:38:50;;;;;;;109.55;30.05;;;0.00;99.90;;;;;;4979944;28;20089;-81
2022/01/28 02:41:15;;;;;;;76.63;30.95;;;0.00;99.90;;;;;;4997584;28;20520;-82
2022/01/28 02:46:14;;;;;;;74.95;31.83;;;0.00;99.90;;;;;;4997609;28;20610;-82
2022/01/28 02:48:51;;;;;;;69.13;32.75;;;0.00;99.90;;;;;;4979867;28;20037;-82
2022/01/28 02:51:19;;;;;;;96.78;32.80;;;0.00;99.90;;;;;;4980049;28;20041;-82
2022/01/28 02:53:52;;;;;;;59.70;32.30;;;0.00;99.90;;;;;;4997767;28;20457;-83
2022/01/28 02:56:35;;;;;;;59.67;32.40;;;0.00;99.90;;;;;;4979832;28;20026;-82
2022/01/28 02:59:01;;;;;;;97.97;31.58;;;0.00;99.90;;;;;;4997333;28;20450;-82
2022/01/28 03:01:27;;;;;;;71.68;33.00;;;0.00;99.90;;;;;;4979793;28;20033;-82
2022/01/28 03:03:57;;;;;;;63.78;33.83;;;0.00;99.90;;;;;;4979839;28;20030;-82
2022/01/28 03:06:23;;;;;;;97.57;33.33;;;0.00;99.90;;;;;;4997356;28;20029;-82
2022/01/28 03:09:07;;;;;;;88.82;32.53;;;0.00;99.90;;;;;;4997319;28;20030;-82
2022/01/28 03:11:44;;;;;;;68.15;33.42;;;0.00;99.90;;;;;;4982026;28;20045;-82
2022/01/28 03:14:35;;;;;;;73.75;34.05;;;0.00;99.90;;;;;;4983329;28;20022;-82
2022/01/28 03:19:41;;;;;;;85.15;32.30;;;0.00;99.90;;;;;;5000722;28;20438;-82
2022/01/28 03:22:09;;;;;;;82.05;28.45;;;0.00;99.90;;;;;;4995923;28;20085;-81
2022/01/28 03:24:37;;;;;;;75.03;32.85;;;0.00;99.90;;;;;;4983323;28;20081;-83
2022/01/28 03:27:10;;;;;;;75.55;33.45;;;0.00;99.90;;;;;;4982648;28;20028;-82
2022/01/28 03:29:36;;;;;;;63.55;33.70;;;0.00;99.90;;;;;;5012551;28;20093;-82
2022/01/28 03:32:03;;;;;;;78.32;30.30;;;0.10;99.90;;;;;;4979897;28;20047;-82
2022/01/28 03:34:29;;;;;;;75.68;30.17;;;0.10;99.90;;;;;;4980576;28;20037;-82
2022/01/28 03:36:56;;;;;;;48.83;29.08;;;0.10;99.90;;;;;;4980671;28;20121;-82
2022/01/28 03:39:22;;;;;;;58.25;30.20;;;0.10;99.90;;;;;;4981627;28;20023;-81
2022/01/28 03:41:48;;;;;;;51.65;32.10;;;0.10;99.90;;;;;;4979959;28;20038;-82
2022/01/28 03:44:14;;;;;;;56.05;31.05;;;0.10;99.90;;;;;;4981286;28;20027;-82
2022/01/28 03:46:40;;;;;;;57.90;23.70;;;0.20;99.90;;;;;;4979541;28;20130;-81
2022/01/28 03:49:05;;;;;;;78.25;28.20;;;0.20;99.90;;;;;;4979746;28;20120;-82
2022/01/28 03:51:31;;;;;;;59.03;27.17;;;0.20;99.90;;;;;;4980775;28;20031;-82
2022/01/28 03:53:57;;;;;;;56.67;27.63;;;0.20;99.90;;;;;;4979507;28;20399;-81
2022/01/28 03:56:24;;;;;;;51.08;25.67;;;0.20;99.90;;;;;;4980601;28;20123;-81
2022/01/28 03:58:49;;;;;;;71.70;29.15;;;0.20;99.90;;;;;;4979739;28;20027;-82
2022/01/28 04:01:19;;;;;;;53.55;29.35;;;0.20;99.90;;;;;;4980661;28;20454;-83
2022/01/28 04:11:51;;;;;;;49.80;19.42;;;0.00;99.90;;;;;;4980673;28;20522;-80
2022/01/28 04:19:39;;;;;;;52.30;27.08;;;-0.10;99.90;;;;;;4979935;28;20085;-82
2022/01/28 04:22:05;;;;;;;52.35;29.42;;;-0.10;99.90;;;;;;5010977;28;20030;-81
2022/01/28 04:24:31;;;;;;;45.55;24.92;;;-0.20;99.90;;;;;;4980311;28;20023;-81
2022/01/28 04:26:58;;;;;;;41.92;26.45;;;-0.20;99.90;;;;;;4980175;28;20110;-80
2022/01/28 04:29:24;;;;;;;33.65;18.98;;;-0.30;99.90;;;;;;4987229;28;20041;-82
2022/01/28 04:31:50;;;;;;;40.08;24.90;;;-0.30;99.90;;;;;;4981884;28;20030;-81
2022/01/28 04:34:19;;;;;;;37.58;24.00;;;-0.40;99.90;;;;;;5014553;28;20525;-83
2022/01/28 04:37:15;;;;;;;34.25;16.70;;;-0.50;99.90;;;;;;4984717;28;20058;-80
2022/01/28 04:42:19;;;;;;;31.77;21.88;;;-0.60;99.90;;;;;;4999574;28;20051;-80
2022/01/28 04:47:22;;;;;;;31.15;19.38;;;-0.70;99.90;;;;;;4999641;28;20030;-81
2022/01/28 04:50:01;;;;;;;36.53;23.02;;;-0.70;99.90;;;;;;4999400;28;20030;-81
2022/01/28 04:55:28;;;;;;;36.15;24.58;;;-0.80;99.90;;;;;;4999385;28;20182;-81
2022/01/28 05:00:51;;;;;;;42.83;25.15;;;-0.90;99.90;;;;;;4999201;28;20100;-81
2022/01/28 05:03:44;;;;;;;35.42;24.85;;;-0.90;99.90;;;;;;4998977;28;20359;-82
2022/01/28 05:25:43;;;;;;;43.17;27.85;;;-0.90;99.90;;;;;;4998522;28;20402;-82
2022/01/28 05:27:44;;;;;;;39.33;26.70;;;-1.00;99.90;;;;;;4994098;28;20072;-82
2022/01/28 05:30:11;;;;;;;38.58;25.15;;;-1.00;99.90;;;;;;4997328;28;20053;-81
2022/01/28 05:32:37;;;;;;;38.20;24.10;;;-1.00;99.90;;;;;;4998100;28;20026;-82
2022/01/28 05:35:04;;;;;;;38.35;27.13;;;-1.10;99.90;;;;;;5000617;28;20014;-82
2022/01/28 05:37:30;;;;;;;34.47;24.45;;;-1.10;99.90;;;;;;4998325;28;20045;-82
2022/01/28 05:39:56;;;;;;;43.88;25.13;;;-1.10;99.90;;;;;;4980836;28;20031;-82
2022/01/28 05:42:22;;;;;;;38.72;24.75;;;-1.10;99.90;;;;;;4980970;28;20037;-82
2022/01/28 05:44:47;;;;;;;35.03;23.15;;;-1.10;99.90;;;;;;4998301;28;20466;-82
2022/01/28 05:47:15;;;;;;;39.25;25.85;;;-1.20;99.90;;;;;;5013220;28;20069;-82
2022/01/28 05:49:42;;;;;;;43.30;26.73;;;-1.20;99.90;;;;;;4980402;28;20061;-82
2022/01/28 05:52:09;;;;;;;39.42;26.42;;;-1.30;99.90;;;;;;4981027;28;20026;-82
2022/01/28 05:54:35;;;;;;;37.50;27.45;;;-1.20;99.90;;;;;;4980544;28;20050;-82
2022/01/28 05:57:01;;;;;;;41.55;28.70;;;-1.20;99.90;;;;;;4980671;28;20035;-82
2022/01/28 05:59:27;;;;;;;47.13;27.70;;;-1.20;99.90;;;;;;4980300;28;20027;-82
2022/01/28 06:01:53;;;;;;;38.70;24.63;;;-1.20;99.90;;;;;;4997975;28;20463;-81
2022/01/28 06:04:21;;;;;;;37.10;26.98;;;-1.10;99.90;;;;;;4980148;28;20045;-81
2022/01/28 06:06:47;;;;;;;33.83;24.70;;;-1.20;99.90;;;;;;4997947;28;20023;-81
2022/01/28 06:09:13;;;;;;;36.22;24.98;;;-1.20;99.90;;;;;;4980530;28;20034;-82
2022/01/28 06:11:39;;;;;;;26.33;17.63;;;-1.20;99.90;;;;;;5013352;28;20110;-82
2022/01/28 06:14:06;;;;;;;36.13;25.58;;;-1.20;99.90;;;;;;4998491;28;20050;-81
2022/01/28 06:16:32;;;;;;;37.75;24.73;;;-1.10;99.90;;;;;;4980636;28;20501;-82
2022/01/28 06:18:58;;;;;;;34.13;25.17;;;-1.10;99.90;;;;;;4997985;28;20034;-82
2022/01/28 06:21:24;;;;;;;34.42;24.00;;;-1.00;99.90;;;;;;5003629;28;20030;-82
2022/01/28 06:23:52;;;;;;;26.58;20.17;;;-1.00;99.90;;;;;;4979949;28;20447;-82
2022/01/28 06:26:18;;;;;;;30.63;21.63;;;-1.00;99.90;;;;;;4980420;28;20053;-82
2022/01/28 06:28:44;;;;;;;31.77;23.05;;;-1.00;99.90;;;;;;4979838;28;20053;-82
2022/01/28 06:31:11;;;;;;;35.83;24.30;;;-1.00;99.90;;;;;;4980507;28;20414;-82
2022/01/28 06:33:37;;;;;;;31.55;23.85;;;-1.00;99.90;;;;;;4979794;28;20030;-82
2022/01/28 06:36:03;;;;;;;35.03;23.27;;;-1.00;99.90;;;;;;5000169;28;20110;-82
2022/01/28 06:38:30;;;;;;;33.47;23.67;;;-1.00;99.90;;;;;;4980291;28;20026;-82
2022/01/28 06:40:56;;;;;;;31.67;24.13;;;-1.10;99.90;;;;;;4997763;28;20471;-82
2022/01/28 06:43:22;;;;;;;31.10;21.92;;;-1.10;99.90;;;;;;4997306;28;20018;-82
2022/01/28 06:45:48;;;;;;;33.50;23.17;;;-1.10;99.90;;;;;;4983122;28;20022;-82
2022/01/28 06:48:16;;;;;;;32.22;23.25;;;-1.10;99.90;;;;;;4982614;28;20456;-82
2022/01/28 06:50:43;;;;;;;32.08;21.20;;;-1.10;99.90;;;;;;4983931;28;20106;-82
2022/01/28 06:53:10;;;;;;;35.65;23.38;;;-1.10;99.90;;;;;;4983871;28;20033;-81
2022/01/28 06:55:36;;;;;;;31.52;22.05;;;-1.00;99.90;;;;;;4983989;28;20034;-82
2022/01/28 06:58:04;;;;;;;28.92;20.13;;;-1.00;99.90;;;;;;4983524;28;20445;-80
2022/01/28 07:00:36;;;;;;;28.92;20.73;;;-1.00;99.90;;;;;;5001241;28;20037;-82
2022/01/28 07:03:02;;;;;;;32.67;23.58;;;-1.00;99.90;;;;;;4983526;28;20514;-82
2022/01/28 07:05:28;;;;;;;30.80;21.67;;;-1.00;99.90;;;;;;4983541;28;20027;-82
2022/01/28 07:07:53;;;;;;;35.17;24.00;;;-0.90;99.90;;;;;;5000885;28;20036;-82
2022/01/28 07:10:19;;;;;;;37.30;24.75;;;-0.90;99.90;;;;;;5001463;28;20029;-82
2022/01/28 07:12:45;;;;;;;33.42;21.70;;;-0.90;99.90;;;;;;4984399;28;20045;-81
2022/01/28 07:15:11;;;;;;;33.50;21.77;;;-0.90;99.90;;;;;;5016076;28;20034;-82
2022/01/28 07:17:37;;;;;;;34.95;22.77;;;-0.80;99.90;;;;;;5000561;28;20038;-82
2022/01/28 07:20:04;;;;;;;28.63;19.08;;;-0.80;99.90;;;;;;5004516;28;20033;-79
2022/01/28 07:22:30;;;;;;;27.98;20.27;;;-0.80;99.90;;;;;;5002179;28;20018;-79
2022/01/28 07:24:56;;;;;;;32.22;20.10;;;-0.70;99.90;;;;;;5000985;28;20517;-78
2022/01/28 07:27:22;;;;;;;31.65;21.17;;;-0.70;99.90;;;;;;5000489;28;20027;-78
2022/01/28 07:29:50;;;;;;;28.83;20.23;;;-0.70;99.90;;;;;;5008861;28;20049;-78
2022/01/28 07:32:16;;;;;;;27.00;19.40;;;-0.70;99.90;;;;;;5002135;28;20026;-78
2022/01/28 07:34:43;;;;;;;29.20;20.65;;;-0.70;99.90;;;;;;5001983;28;20035;-78
2022/01/28 07:37:09;;;;;;;29.08;20.80;;;-0.70;99.90;;;;;;4984301;28;20121;-78
2022/01/28 07:39:35;;;;;;;23.83;14.90;;;-0.70;99.90;;;;;;4982942;28;20062;-77
2022/01/28 07:42:01;;;;;;;24.33;16.65;;;-0.60;99.90;;;;;;5000323;28;20589;-79
2022/01/28 07:44:26;;;;;;;31.65;19.75;;;-0.60;99.90;;;;;;4983217;28;20507;-78
2022/01/28 07:46:52;;;;;;;30.25;19.30;;;-0.60;99.90;;;;;;5000257;28;20033;-78
2022/01/28 07:49:18;;;;;;;30.05;20.58;;;-0.60;99.90;;;;;;4997567;28;20029;-79
2022/01/28 07:51:44;;;;;;;26.58;17.35;;;-0.60;99.90;;;;;;5014072;28;20022;-78
2022/01/28 07:54:10;;;;;;;24.17;17.20;;;-0.50;99.90;;;;;;5018796;28;20069;-78
2022/01/28 07:56:36;;;;;;;27.63;19.42;;;-0.60;99.90;;;;;;4995377;28;20425;-79
2022/01/28 07:59:02;;;;;;;25.02;17.98;;;-0.50;99.90;;;;;;5017954;28;20022;-79
2022/01/28 08:01:28;;;;;;;27.20;18.45;;;-0.50;99.90;;;;;;5013846;28;20113;-78
2022/01/28 08:03:54;;;;;;;32.53;19.50;;;-0.50;99.90;;;;;;5016167;28;20117;-78
2022/01/28 08:06:20;;;;;;;29.17;19.15;;;-0.40;99.90;;;;;;5013780;28;20032;-78
2022/01/28 08:08:45;;;;;;;32.50;19.63;;;-0.40;99.90;;;;;;5012101;28;20097;-79
2022/01/28 08:11:11;;;;;;;27.30;18.13;;;-0.40;99.90;;;;;;5016232;28;20030;-79
2022/01/28 08:13:37;;;;;;;29.48;18.63;;;-0.30;99.90;;;;;;5018384;28;20029;-78
2022/01/28 08:16:04;;;;;;;29.42;18.85;;;-0.30;99.90;;;;;;5016473;28;20032;-78
2022/01/28 08:18:29;;;;;;;30.25;20.95;;;-0.30;99.90;;;;;;5015981;28;20097;-78
2022/01/28 08:20:55;;;;;;;32.75;20.02;;;-0.20;99.90;;;;;;5016556;28;20053;-78
2022/01/28 08:23:21;;;;;;;33.17;19.83;;;-0.20;99.90;;;;;;4999517;28;20025;-78
2022/01/28 08:25:51;;;;;;;33.58;20.95;;;-0.20;99.90;;;;;;5013684;28;20046;-78
2022/01/28 08:28:16;;;;;;;31.90;21.13;;;-0.10;99.90;;;;;;5012651;28;20026;-78
2022/01/28 08:30:42;;;;;;;33.00;21.30;;;-0.10;99.90;;;;;;4976946;28;20051;-77
2022/01/28 08:33:11;;;;;;;36.47;22.65;;;-0.10;99.90;;;;;;4956707;28;20034;-78
2022/01/28 08:35:39;;;;;;;33.17;21.88;;;0.00;99.90;;;;;;4979101;28;20407;-78
2022/01/28 08:38:15;;;;;;;33.67;19.63;;;0.10;99.90;;;;;;4962538;28;20027;-78
2022/01/28 08:40:41;;;;;;;31.40;20.98;;;0.10;99.90;;;;;;4972212;28;20069;-78
2022/01/28 08:43:07;;;;;;;35.45;20.88;;;0.10;99.90;;;;;;4973960;28;20037;-78
2022/01/28 08:45:34;;;;;;;29.63;20.77;;;0.10;99.90;;;;;;4979494;28;20035;-78
2022/01/28 08:47:59;;;;;;;29.42;19.73;;;0.10;99.90;;;;;;4979395;28;20467;-78
2022/01/28 08:50:25;;;;;;;32.65;21.35;;;0.20;99.90;;;;;;4979831;28;20058;-78
2022/01/28 08:52:51;;;;;;;31.05;21.52;;;0.20;99.90;;;;;;4979818;28;20031;-79
2022/01/28 08:55:17;;;;;;;32.42;22.33;;;0.30;99.90;;;;;;4979700;28;20027;-78
2022/01/28 08:57:44;;;;;;;32.10;23.23;;;0.30;99.90;;;;;;4976759;28;20077;-79
2022/01/28 09:00:17;;;;;;;33.33;20.65;;;0.40;99.90;;;;;;4973853;28;20026;-79
2022/01/28 09:02:43;;;;;;;24.58;17.02;;;0.40;99.90;;;;;;4978945;28;20016;-77
2022/01/28 09:05:09;;;;;;;27.35;18.70;;;0.50;99.90;;;;;;4967783;28;20023;-79
2022/01/28 09:07:35;;;;;;;31.25;19.55;;;0.50;99.90;;;;;;4983643;28;20022;-80
2022/01/28 09:10:07;;;;;;;29.48;20.40;;;0.50;99.90;;;;;;4979347;28;20034;-79
2022/01/28 09:14:59;;;;;;;29.02;18.60;;;0.60;99.90;;;;;;4979043;28;20033;-78
2022/01/28 09:17:28;;;;;;;27.08;19.25;;;0.60;99.90;;;;;;4965639;28;20100;-81
2022/01/28 09:19:53;;;;;;;32.10;18.83;;;0.60;99.90;;;;;;4981215;28;20432;-79
2022/01/28 09:22:19;;;;;;;31.63;20.40;;;0.70;99.90;;;;;;4981675;28;20105;-79
2022/01/28 09:24:45;;;;;;;25.35;17.45;;;0.80;99.90;;;;;;4978817;28;20031;-78
2022/01/28 09:27:11;;;;;;;27.08;17.60;;;0.80;99.90;;;;;;4977927;28;20518;-80
2022/01/28 09:29:37;;;;;;;27.02;18.90;;;0.90;99.90;;;;;;4986797;28;20054;-79
2022/01/28 09:32:04;;;;;;;24.25;17.75;;;0.90;99.90;;;;;;4995728;28;20109;-80
2022/01/28 09:34:30;;;;;;;24.83;17.63;;;0.90;99.90;;;;;;4997451;28;20084;-79
2022/01/28 09:36:56;;;;;;;27.73;18.38;;;1.00;99.90;;;;;;4997602;28;20026;-79
2022/01/28 09:39:22;;;;;;;26.90;17.70;;;1.00;99.90;;;;;;4980033;28;20030;-76
2022/01/28 09:41:48;;;;;;;28.90;17.65;;;1.00;99.90;;;;;;4970763;28;20029;-76
2022/01/28 09:44:25;;;;;;;24.70;15.88;;;1.00;99.90;;;;;;4998276;28;20439;-77
2022/01/28 09:46:52;;;;;;;20.13;13.82;;;1.10;99.90;;;;;;4992397;28;20026;-79
2022/01/28 09:49:18;;;;;;;21.52;13.15;;;1.10;99.90;;;;;;4997823;28;20026;-80
2022/01/28 09:51:45;;;;;;;25.23;16.55;;;1.10;99.90;;;;;;4997774;28;20045;-79
2022/01/28 09:54:10;;;;;;;26.40;17.58;;;1.10;99.90;;;;;;5006110;28;20043;-79
2022/01/28 09:56:36;;;;;;;26.90;18.15;;;1.20;99.90;;;;;;4981319;28;20406;-78
2022/01/28 09:59:02;;;;;;;28.23;18.90;;;1.20;99.90;;;;;;4996777;28;20034;-81
2022/01/28 10:01:28;;;;;;;26.23;17.67;;;1.20;99.90;;;;;;4997026;28;20027;-79
2022/01/28 10:04:04;;;;;;;28.65;18.83;;;1.30;99.90;;;;;;4997760;28;20026;-79
2022/01/28 10:06:35;;;;;;;29.55;18.83;;;1.40;99.90;;;;;;4997859;28;20426;-79
2022/01/28 10:09:12;;;;;;;30.35;20.45;;;1.40;99.90;;;;;;4997508;28;20030;-80
2022/01/28 10:11:41;;;;;;;30.65;20.17;;;1.50;99.90;;;;;;4997569;28;20110;-79
2022/01/28 10:14:16;;;;;;;27.38;19.58;;;1.50;99.90;;;;;;4997594;28;20414;-78
2022/01/28 10:16:53;;;;;;;27.88;18.25;;;1.60;99.90;;;;;;4980345;28;20041;-79
2022/01/28 10:19:23;;;;;;;26.15;17.80;;;1.60;99.90;;;;;;4988259;28;20030;-79
2022/01/28 10:21:49;;;;;;;29.20;18.38;;;1.60;99.90;;;;;;4996591;28;20026;-79
2022/01/28 10:24:23;;;;;;;25.20;17.40;;;1.70;99.90;;;;;;5001144;28;20068;-80
2022/01/28 10:27:07;;;;;;;23.80;16.77;;;1.60;99.90;;;;;;4994554;28;20489;-80
2022/01/28 10:29:40;;;;;;;29.90;18.27;;;1.60;99.90;;;;;;5000176;28;20108;-80
2022/01/28 10:32:10;;;;;;;25.95;17.10;;;1.70;99.90;;;;;;4997602;28;20018;-80
2022/01/28 10:34:39;;;;;;;36.53;20.73;;;1.70;99.90;;;;;;5001310;28;20018;-80
2022/01/28 10:37:14;;;;;;;28.02;18.13;;;1.70;99.90;;;;;;5008649;28;20398;-80
2022/01/28 10:39:48;;;;;;;31.10;21.20;;;1.70;99.90;;;;;;5009137;28;20036;-81
2022/01/28 10:42:17;;;;;;;29.67;22.02;;;1.80;99.90;;;;;;4997477;28;20026;-81
2022/01/28 10:44:53;;;;;;;31.52;20.23;;;1.80;99.90;;;;;;4997420;28;20426;-81
2022/01/28 10:47:42;;;;;;;29.33;20.38;;;1.90;99.90;;;;;;4997418;28;20023;-81
2022/01/28 10:50:24;;;;;;;26.42;17.80;;;1.90;99.90;;;;;;5011075;28;20022;-81
2022/01/28 10:53:04;;;;;;;26.67;17.85;;;1.90;99.90;;;;;;4997312;28;20026;-80
2022/01/28 10:55:32;;;;;;;31.58;20.80;;;1.90;99.90;;;;;;4997382;28;20030;-80
2022/01/28 10:58:05;;;;;;;29.90;18.90;;;1.90;99.90;;;;;;5005397;28;20096;-82
2022/01/28 11:00:34;;;;;;;30.48;19.23;;;2.00;99.90;;;;;;4996960;28;20050;-82
2022/01/28 11:03:03;;;;;;;28.20;18.08;;;2.00;99.90;;;;;;5000803;28;20054;-82
2022/01/28 11:05:30;;;;;;;28.30;19.35;;;2.00;99.90;;;;;;5015027;28;20022;-81
2022/01/28 11:08:01;;;;;;;28.42;18.48;;;2.10;99.90;;;;;;5011052;28;20034;-81
2022/01/28 11:10:27;;;;;;;;;;;2.10;99.90;;;;;;5010036;28;20041;-82
2022/01/28 11:12:54;;;;;;;27.40;18.23;;;2.10;99.90;;;;;;5009009;28;19913;-78
2022/01/28 11:15:22;;;;;;;29.13;19.20;;;2.10;99.90;;;;;;4979472;28;20022;-79
2022/01/28 11:17:49;;;;;;;27.02;19.25;;;2.20;99.90;;;;;;4995938;28;20015;-79
2022/01/28 11:20:20;;;;;;;29.70;19.27;;;2.20;99.90;;;;;;5001403;28;20418;-80
2022/01/28 11:23:28;;;;;;;27.60;16.95;;;2.30;99.90;;;;;;4981412;28;20022;-79
2022/01/28 11:26:12;;;;;;;30.20;16.77;;;2.20;99.90;;;;;;4979453;28;20062;-80
2022/01/28 11:28:55;;;;;;;30.00;19.75;;;2.20;99.90;;;;;;5007096;28;20398;-81
2022/01/28 11:31:49;;;;;;;27.90;19.55;;;2.30;99.90;;;;;;5013238;28;20449;-77
2022/01/28 11:34:16;;;;;;;27.20;18.10;;;2.30;99.90;;;;;;5017021;28;20080;-80
2022/01/28 11:36:42;;;;;;;30.52;17.13;;;2.50;99.90;;;;;;5016295;28;20033;-78
2022/01/28 11:39:35;;;;;;;28.27;18.33;;;2.40;99.90;;;;;;5001378;28;20117;-78
2022/01/28 11:42:15;;;;;;;29.52;20.27;;;2.50;99.90;;;;;;5001723;28;20090;-81
2022/01/28 11:44:54;;;;;;;;;;;;;;;;;;;;;
2022/01/28 11:47:56;;;;;;;36.95;21.83;;;2.50;99.90;;;;;;5001527;28;20463;-81
2022/01/28 11:50:23;;;;;;;37.47;22.02;;;2.60;99.90;;;;;;4976888;28;20031;-81
2022/01/28 11:52:56;;;;;;;40.00;23.23;;;2.60;99.90;;;;;;4985374;28;20015;-81
2022/01/28 11:55:24;;;;;;;32.92;21.25;;;2.60;99.90;;;;;;4983723;28;20109;-82
2022/01/28 11:58:13;;;;;;;175.05;64.55;;;2.70;99.90;;;;;;4999845;28;20026;-82
2022/01/28 12:00:49;;;;;;;29.33;19.13;;;2.70;99.90;;;;;;4992167;28;20038;-81
2022/01/28 12:03:27;;;;;;;32.08;18.63;;;2.70;99.90;;;;;;5024955;28;20049;-82
2022/01/28 12:05:57;;;;;;;27.15;18.52;;;2.70;99.90;;;;;;4982273;28;20022;-81
2022/01/28 12:08:28;;;;;;;29.25;18.20;;;2.70;99.90;;;;;;4982312;28;20695;-81
2022/01/28 12:10:55;;;;;;;28.25;19.67;;;2.70;99.90;;;;;;5000085;28;20513;-81
2022/01/28 12:13:32;;;;;;;35.30;21.83;;;2.70;99.90;;;;;;5009753;28;20030;-81
2022/01/28 12:16:10;;;;;;;37.70;22.90;;;2.70;99.90;;;;;;4999441;28;20063;-81
2022/01/28 12:18:54;;;;;;;35.38;21.75;;;2.80;99.90;;;;;;5014735;28;20033;-81
2022/01/28 12:21:31;;;;;;;40.30;24.83;;;2.70;99.90;;;;;;4987668;28;20411;-81
2022/01/28 12:24:19;;;;;;;37.60;22.63;;;2.70;99.90;;;;;;4982002;28;20019;-82
2022/01/28 12:27:08;;;;;;;39.65;22.35;;;2.70;99.90;;;;;;4981884;28;20027;-80
2022/01/28 12:29:36;;;;;;;44.33;24.35;;;2.70;99.90;;;;;;4962073;28;20526;-81
2022/01/28 12:32:06;;;;;;;40.55;24.63;;;2.70;99.90;;;;;;4979587;28;20033;-80
2022/01/28 12:34:33;;;;;;;40.80;24.70;;;2.70;99.90;;;;;;4979648;28;20030;-81
2022/01/28 12:36:59;;;;;;;40.47;25.00;;;2.70;99.90;;;;;;4981246;28;20062;-81
2022/01/28 12:39:35;;;;;;;37.72;21.67;;;2.70;99.90;;;;;;4963447;28;20026;-81
2022/01/28 12:42:07;;;;;;;39.17;23.80;;;2.80;99.90;;;;;;4979324;28;20042;-81
2022/01/28 12:44:34;;;;;;;37.13;24.35;;;2.90;99.90;;;;;;4962329;28;20031;-81
2022/01/28 12:47:04;;;;;;;34.50;21.75;;;2.90;99.90;;;;;;4947904;28;20034;-81
2022/01/28 12:49:33;;;;;;;37.28;22.88;;;3.10;99.90;;;;;;4950712;28;20027;-80
2022/01/28 12:52:03;;;;;;;45.42;24.05;;;3.00;99.90;;;;;;4978238;28;20023;-81
2022/01/28 12:54:30;;;;;;;38.15;20.00;;;3.00;99.90;;;;;;4960595;28;20023;-81
2022/01/28 13:12:34;;;;;;;31.13;20.15;;;3.00;99.90;;;;;;4717979;30;20130;-80
2022/01/28 14:05:54;;;;;;;;;;;;;;;;;;;;;
2022/01/28 14:12:23;;;;;;;33.65;21.05;;;3.00;99.90;;;;;;4634250;30;20046;-81
2022/01/28 14:14:48;;;;;;;36.65;20.80;;;3.00;99.90;;;;;;4649681;30;20046;-81
2022/01/28 14:17:14;;;;;;;35.55;21.42;;;3.00;99.90;;;;;;4873452;28;20505;-81
2022/01/28 14:19:43;;;;;;;30.88;19.33;;;3.00;99.90;;;;;;4961238;28;20113;-80
2022/01/28 14:22:12;;;;;;;32.20;21.00;;;3.00;99.90;;;;;;4960539;28;20554;-80
2022/01/28 14:24:39;;;;;;;39.65;21.73;;;3.00;99.90;;;;;;4980721;28;20019;-81
2022/01/28 14:32:18;;;;;;;27.25;16.52;;;3.10;99.90;;;;;;5009941;28;20026;-80
2022/01/28 14:34:46;;;;;;;30.70;20.67;;;3.10;99.90;;;;;;4983132;28;20058;-81
2022/01/28 14:37:12;;;;;;;32.70;22.10;;;3.10;99.90;;;;;;5005149;28;20478;-81
2022/01/28 14:39:40;;;;;;;33.67;21.63;;;3.10;99.90;;;;;;4985690;28;20018;-82
2022/01/28 14:42:20;;;;;;;37.15;22.63;;;3.10;99.90;;;;;;4979700;28;20034;-79
2022/01/28 14:44:48;;;;;;;36.57;23.17;;;3.20;99.90;;;;;;4995208;28;20026;-80
2022/01/28 14:47:15;;;;;;;32.85;19.98;;;3.10;99.90;;;;;;4980138;28;20027;-79
2022/01/28 14:49:41;;;;;;;30.27;18.42;;;3.20;99.90;;;;;;4979740;28;20026;-82
2022/01/28 14:52:12;;;;;;;38.25;22.25;;;3.20;99.90;;;;;;4979238;28;20031;-81
2022/01/28 14:54:39;;;;;;;39.20;23.25;;;3.20;99.90;;;;;;4994398;28;20029;-81
2022/01/28 14:57:08;;;;;;;35.65;21.23;;;3.10;99.90;;;;;;4990582;28;20030;-81
2022/01/28 14:59:35;;;;;;;34.70;21.13;;;3.20;99.90;;;;;;4979893;28;20093;-81
2022/01/28 15:02:02;;;;;;;35.13;20.05;;;3.10;99.90;;;;;;4979760;28;20018;-81
2022/01/28 15:04:28;;;;;;;37.22;21.95;;;3.10;99.90;;;;;;4979736;28;20114;-82
2022/01/28 15:06:54;;;;;;;37.28;22.60;;;3.20;99.90;;;;;;4973819;28;20046;-81
2022/01/28 15:09:20;;;;;;;41.85;25.55;;;3.20;99.90;;;;;;4984545;28;20026;-81
2022/01/28 15:11:49;;;;;;;37.78;23.25;;;3.20;99.90;;;;;;4991236;28;20125;-81
2022/01/28 15:14:21;;;;;;;44.38;24.40;;;3.20;99.90;;;;;;5017971;28;20109;-81
2022/01/28 15:16:49;;;;;;;38.20;23.60;;;3.20;99.90;;;;;;4988873;28;20036;-81
2022/01/28 15:19:16;;;;;;;55.45;31.63;;;3.10;99.90;;;;;;4995966;28;20037;-81
2022/01/28 15:21:44;;;;;;;44.85;26.35;;;3.20;99.90;;;;;;4989146;28;20027;-80
2022/01/28 15:24:12;;;;;;;42.58;23.60;;;3.20;99.90;;;;;;5000973;28;20022;-80